Time;durP1;ratioP1;P1;durP2;ratioP2;P2;SDS_P1;SDS_P2;PMS_P1;PMS_P2;Temp;Humidity;BMP_temperature;BMP_pressure;BME280_temperature;BME280_humidity;BME280_pressure;Samples;Min_cycle;Max_cycle;Signal;HPM_P1;HPM_P2
2021/11/12 00:12:35;;;;;;;43.00;21.08;;;;;;;8.40;91.87;102330.78;5036715;28;20044;-90
2021/11/12 00:15:02;;;;;;;42.85;21.42;;;;;;;8.42;92.41;102337.72;5053914;28;20037;-89
2021/11/12 00:17:31;;;;;;;54.60;22.52;;;;;;;8.41;93.25;102335.13;5056475;28;20067;-89
2021/11/12 00:19:58;;;;;;;52.10;21.88;;;;;;;8.39;92.96;102326.41;5062997;28;20041;-90
2021/11/12 00:22:24;;;;;;;46.45;22.10;;;;;;;8.37;93.25;102323.84;5058566;28;20029;-86
2021/11/12 00:24:55;;;;;;;41.05;19.73;;;;;;;8.36;93.76;102322.16;5053265;28;20032;-90
2021/11/12 00:27:25;;;;;;;49.17;21.55;;;;;;;8.35;93.63;102322.25;5053771;28;20060;-86
2021/11/12 00:45:19;;;;;;;54.63;24.10;;;;;;;8.23;94.15;102308.72;5029234;28;20096;-85
2021/11/12 00:47:51;;;;;;;58.60;26.02;;;;;;;8.23;94.00;102297.28;5036276;28;20037;-85
2021/11/12 00:55:15;;;;;;;62.67;25.58;;;;;;;8.15;94.38;102296.84;5052963;28;20473;-86
2021/11/12 00:57:40;;;;;;;64.65;26.08;;;;;;;8.12;94.20;102295.22;5053147;28;20044;-85
2021/11/12 01:00:09;;;;;;;66.05;28.33;;;;;;;8.10;94.20;102294.47;5052869;28;20071;-85
2021/11/12 01:02:36;;;;;;;62.55;25.77;;;;;;;8.09;93.68;102290.97;5035434;28;20029;-86
2021/11/12 01:05:02;;;;;;;70.10;27.30;;;;;;;8.09;93.86;102292.75;5055708;28;20029;-85
2021/11/12 01:07:29;;;;;;;66.50;26.98;;;;;;;8.07;93.61;102289.34;5042652;28;20461;-86
2021/11/12 01:09:55;;;;;;;66.22;25.90;;;;;;;8.09;92.98;102283.00;5062792;28;20550;-86
2021/11/12 01:12:21;;;;;;;72.25;28.48;;;;;;;8.08;92.84;102281.28;5062304;28;20024;-86
2021/11/12 01:14:46;;;;;;;71.38;27.23;;;;;;;8.07;92.79;102276.09;5034960;28;20045;-86
2021/11/12 01:17:12;;;;;;;68.40;27.55;;;;;;;8.03;92.97;102278.06;5052230;28;20041;-86
2021/11/12 01:19:37;;;;;;;73.55;27.05;;;;;;;7.99;92.92;102275.69;5052681;28;20392;-87
2021/11/12 01:22:04;;;;;;;70.47;26.90;;;;;;;7.95;92.82;102261.72;5052247;28;20037;-85
2021/11/12 01:24:29;;;;;;;72.80;27.05;;;;;;;7.91;93.06;102270.78;5052672;28;20032;-86
2021/11/12 01:26:55;;;;;;;68.13;27.17;;;;;;;7.86;93.51;102263.09;5034531;28;20036;-86
2021/11/12 01:29:20;;;;;;;72.10;26.83;;;;;;;7.83;93.96;102265.06;5053056;28;20120;-86
2021/11/12 01:31:45;;;;;;;71.00;26.80;;;;;;;7.80;93.95;102262.59;5035279;28;20048;-87
2021/11/12 01:34:12;;;;;;;64.70;25.95;;;;;;;7.79;94.06;102268.84;5034301;28;20488;-88
2021/11/12 01:36:42;;;;;;;64.75;25.25;;;;;;;7.76;94.28;102265.44;5052485;28;20094;-87
2021/11/12 01:39:20;;;;;;;61.33;25.88;;;;;;;7.77;93.60;102269.75;5052797;28;20037;-86
2021/11/12 01:41:49;;;;;;;64.65;24.75;;;;;;;7.76;93.75;102262.78;5054342;28;20037;-86
2021/11/12 01:44:16;;;;;;;58.83;25.00;;;;;;;7.77;94.08;102263.63;5037433;28;20359;-87
2021/11/12 01:47:09;;;;;;;58.47;24.13;;;;;;;7.76;93.72;102264.56;5053372;28;20072;-87
2021/11/12 01:49:38;;;;;;;55.28;24.08;;;;;;;7.77;93.92;102263.63;5038298;28;20048;-86
2021/11/12 01:52:15;;;;;;;52.15;23.05;;;;;;;7.78;93.48;102257.38;5051379;28;20055;-86
2021/11/12 01:55:03;;;;;;;49.05;21.90;;;;;;;7.79;93.17;102263.53;5051762;28;20033;-86
2021/11/12 02:00:09;;;;;;;51.55;21.98;;;;;;;7.77;93.52;102258.31;5051259;28;20103;-86
2021/11/12 02:02:34;;;;;;;;;;;;;;;7.75;93.38;102255.75;5052139;28;20036;-87
2021/11/12 02:05:00;;;;;;;46.92;22.42;;;;;;;7.75;92.86;102257.56;5051233;28;19921;-86
2021/11/12 02:07:26;;;;;;;41.92;22.05;;;;;;;7.74;93.17;102254.03;5051689;28;20035;-86
2021/11/12 02:09:51;;;;;;;42.83;21.25;;;;;;;7.74;92.95;102247.91;5054699;28;20492;-86
2021/11/12 02:14:44;;;;;;;42.55;21.08;;;;;;;7.73;92.74;102225.84;5054673;28;20033;-87
2021/11/12 02:17:16;;;;;;;45.03;20.80;;;;;;;7.78;91.70;102233.53;5054316;28;20060;-86
2021/11/12 02:19:52;;;;;;;40.80;20.70;;;;;;;7.79;91.18;102237.03;5055176;28;20029;-87
2021/11/12 02:22:18;;;;;;;36.08;19.67;;;;;;;7.79;92.05;102232.59;5054101;28;20530;-86
2021/11/12 02:24:54;;;;;;;32.90;19.13;;;;;;;7.80;92.12;102218.41;5054708;28;20465;-87
2021/11/12 02:27:22;;;;;;;35.53;19.08;;;;;;;7.83;91.09;102212.09;5054203;28;20059;-86
2021/11/12 02:29:52;;;;;;;40.65;20.33;;;;;;;7.81;90.65;102198.91;5036683;28;20041;-86
2021/11/12 02:32:25;;;;;;;36.97;19.95;;;;;;;7.81;90.76;102192.75;5054367;28;20036;-87
2021/11/12 02:34:53;;;;;;;38.53;19.92;;;;;;;7.79;90.85;102181.41;5054277;28;20540;-86
2021/11/12 02:37:21;;;;;;;35.38;18.98;;;;;;;7.78;90.72;102201.75;5054203;28;20079;-88
2021/11/12 02:39:47;;;;;;;40.05;20.45;;;;;;;7.77;90.30;102202.69;5054261;28;20400;-87
2021/11/12 02:42:13;;;;;;;36.58;20.25;;;;;;;7.76;90.96;102204.47;5053851;28;20055;-87
2021/11/12 02:44:41;;;;;;;36.08;19.70;;;;;;;7.75;90.95;102208.06;5054375;28;20029;-86
2021/11/12 02:47:09;;;;;;;42.67;20.25;;;;;;;7.75;91.50;102197.47;5011535;28;1221324;-87
2021/11/12 02:49:36;;;;;;;35.65;19.58;;;;;;;7.73;91.44;102185.25;5055597;28;20037;-86
2021/11/12 02:52:03;;;;;;;35.88;19.95;;;;;;;7.73;91.93;102185.25;5037655;28;20421;-86
2021/11/12 02:54:30;;;;;;;41.72;20.67;;;;;;;7.71;91.72;102166.78;5055566;28;20060;-86
2021/11/12 02:56:58;;;;;;;44.13;21.83;;;;;;;7.72;91.99;102168.50;5055561;28;20040;-87
2021/11/12 02:59:25;;;;;;;40.28;20.70;;;;;;;7.71;92.11;102158.84;5054578;28;20466;-86
2021/11/12 03:01:51;;;;;;;43.85;21.55;;;;;;;7.72;92.20;102159.72;5037061;28;20428;-87
2021/11/12 03:04:19;;;;;;;46.75;22.65;;;;;;;7.70;92.03;102165.09;5054929;28;20127;-85
2021/11/12 03:06:45;;;;;;;42.53;22.05;;;;;;;7.70;91.95;102157.16;5054905;28;20091;-87
2021/11/12 03:09:11;;;;;;;46.05;23.00;;;;;;;7.70;92.04;102148.31;5054788;28;20033;-88
2021/11/12 03:11:38;;;;;;;46.47;22.70;;;;;;;7.71;92.05;102142.09;5055063;28;20127;-87
2021/11/12 03:14:07;;;;;;;42.80;22.30;;;;;;;7.68;91.76;102140.47;5054968;28;20116;-87
2021/11/12 03:16:34;;;;;;;42.67;21.83;;;;;;;7.69;91.57;102136.88;5037684;28;20044;-87
2021/11/12 03:19:01;;;;;;;41.88;21.40;;;;;;;7.68;91.44;102140.47;5037402;28;20028;-87
2021/11/12 03:21:27;;;;;;;41.17;21.33;;;;;;;7.68;91.11;102139.63;5054600;28;20502;-86
2021/11/12 03:24:04;;;;;;;42.75;21.50;;;;;;;7.67;91.23;102125.50;5054855;28;20029;-87
2021/11/12 03:29:22;;;;;;;45.17;21.90;;;;;;;7.67;90.97;102117.56;5036831;28;20041;-87
2021/11/12 04:02:07;;;;;;;40.72;21.13;;;;;;;7.49;91.53;102063.00;5039158;28;20043;-86
2021/11/12 04:50:09;;;;;;;35.33;20.63;;;;;;;7.31;88.64;102012.81;5037969;28;20571;-85
2021/11/12 05:11:22;;;;;;;44.88;23.10;;;;;;;6.95;88.85;102013.16;5052814;28;20041;-88
2021/11/12 05:44:11;;;;;;;54.65;29.75;;;;;;;5.79;92.29;102001.72;5056344;28;20044;-88
2021/11/12 05:46:50;;;;;;;58.30;30.50;;;;;;;5.70;93.16;101991.59;5038256;28;20075;-86
2021/11/12 05:57:09;;;;;;;66.75;36.22;;;;;;;5.25;95.14;101959.53;5056783;28;20048;-87
2021/11/12 05:59:35;;;;;;;69.38;35.80;;;;;;;5.15;95.31;101962.72;5021848;28;20488;-86
2021/11/12 06:02:00;;;;;;;69.55;37.72;;;;;;;5.05;95.12;101957.91;5056632;28;20029;-86
2021/11/12 06:04:26;;;;;;;70.47;39.45;;;;;;;5.00;95.58;101951.16;5056394;28;20186;-86
2021/11/12 06:06:52;;;;;;;75.70;38.50;;;;;;;4.95;96.49;101951.38;5038595;28;20393;-85
2021/11/12 06:09:18;;;;;;;71.65;39.15;;;;;;;4.92;96.50;101940.97;5038284;28;20487;-85
2021/11/12 06:11:43;;;;;;;71.28;37.10;;;;;;;4.87;96.01;101940.38;5056020;28;20056;-86
2021/11/12 06:14:09;;;;;;;77.10;39.22;;;;;;;4.83;96.71;101936.16;5038229;28;20149;-85
2021/11/12 06:16:35;;;;;;;83.28;40.33;;;;;;;4.76;97.26;101931.19;5055655;28;20120;-91
2021/11/12 06:19:02;;;;;;;82.18;41.72;;;;;;;4.72;97.18;101923.50;5038182;28;20028;-83
2021/11/12 06:21:28;;;;;;;76.65;40.17;;;;;;;4.69;97.08;101910.47;5055906;28;20037;-83
2021/11/12 06:23:53;;;;;;;87.90;42.72;;;;;;;4.63;97.47;101918.66;5037559;28;20033;-82
2021/11/12 06:26:19;;;;;;;89.63;44.50;;;;;;;4.55;97.59;101930.44;5055418;28;20037;-82
2021/11/12 06:28:46;;;;;;;80.55;39.83;;;;;;;4.47;97.41;101924.66;5037403;28;20435;-83
2021/11/12 06:31:12;;;;;;;102.88;47.03;;;;;;;4.39;97.90;101932.09;5055723;28;20025;-82
2021/11/12 06:33:37;;;;;;;97.72;43.60;;;;;;;4.36;98.29;101948.03;5055100;28;20120;-84
2021/11/12 06:36:03;;;;;;;84.03;41.08;;;;;;;4.30;98.41;101943.91;5055776;28;20116;-84
2021/11/12 06:38:30;;;;;;;97.55;44.67;;;;;;;4.25;98.05;101940.63;5055408;28;20048;-84
2021/11/12 06:40:58;;;;;;;116.93;48.45;;;;;;;4.27;99.16;101933.53;5055564;28;20033;-84
2021/11/12 06:51:23;;;;;;;119.53;47.08;;;;;;;4.31;100.00;101926.31;5056299;28;20044;-87
2021/11/12 06:53:50;;;;;;;112.72;48.33;;;;;;;4.28;100.00;101916.78;5037272;28;20048;-86
2021/11/12 06:56:18;;;;;;;109.30;45.88;;;;;;;4.28;100.00;101922.03;5038108;28;20068;-88
2021/11/12 06:58:43;;;;;;;115.03;47.45;;;;;;;4.24;100.00;101918.72;5037587;28;20037;-88
2021/11/12 07:01:08;;;;;;;119.15;49.03;;;;;;;4.21;100.00;101921.50;5055780;28;20032;-87
2021/11/12 07:03:34;;;;;;;125.88;48.20;;;;;;;4.23;100.00;101924.06;5037205;28;20488;-84
2021/11/12 07:06:01;;;;;;;140.15;50.72;;;;;;;4.22;100.00;101922.34;5037136;28;20034;-84
2021/11/12 07:08:27;;;;;;;128.10;47.97;;;;;;;4.19;100.00;101918.06;5037384;28;20060;-83
2021/11/12 07:10:52;;;;;;;124.20;48.53;;;;;;;4.17;100.00;101925.19;5054809;28;20025;-86
2021/11/12 07:13:24;;;;;;;144.57;50.50;;;;;;;4.14;100.00;101914.78;5055721;28;20120;-84
2021/11/12 07:15:51;;;;;;;140.63;50.72;;;;;;;4.14;100.00;101909.53;5055013;28;20029;-80
2021/11/12 07:18:19;;;;;;;132.65;49.42;;;;;;;4.15;100.00;101902.47;5037327;28;20063;-87
2021/11/12 07:20:46;;;;;;;135.57;50.85;;;;;;;4.18;100.00;101897.91;5063015;28;20534;-90
2021/11/12 07:23:12;;;;;;;145.13;53.47;;;;;;;4.22;100.00;101894.22;5054645;28;20040;-89
2021/11/12 07:25:37;;;;;;;131.18;51.15;;;;;;;4.21;100.00;101886.38;5063703;28;20039;-83
2021/11/12 07:28:03;;;;;;;138.38;50.55;;;;;;;4.19;100.00;101886.44;5045426;28;20033;-83
2021/11/12 07:30:29;;;;;;;130.95;47.42;;;;;;;4.21;100.00;101894.25;5059588;28;20132;-84
2021/11/12 07:32:55;;;;;;;139.27;50.47;;;;;;;4.22;100.00;101893.34;5056783;28;20061;-86
2021/11/12 07:35:28;;;;;;;139.32;47.85;;;;;;;4.22;100.00;101878.41;5054664;28;20067;-83
2021/11/12 07:37:58;;;;;;;129.38;48.03;;;;;;;4.24;100.00;101873.91;5054487;28;20061;-88
2021/11/12 07:40:30;;;;;;;122.40;47.38;;;;;;;4.25;100.00;101880.03;5037781;28;20040;-89
2021/11/12 07:43:20;;;;;;;134.00;48.17;;;;;;;4.30;100.00;101883.31;5037703;28;20151;-89
2021/11/12 07:46:10;;;;;;;138.10;51.67;;;;;;;4.35;100.00;101876.03;5055289;28;20021;-88
2021/11/12 07:48:35;;;;;;;137.35;49.20;;;;;;;4.42;100.00;101863.44;5027242;28;20052;-87
2021/11/12 07:51:01;;;;;;;116.20;46.90;;;;;;;4.48;100.00;101857.00;5054407;28;20041;-82
2021/11/12 07:53:26;;;;;;;127.82;48.38;;;;;;;4.53;100.00;101855.00;5054462;28;20033;-82
2021/11/12 07:55:55;;;;;;;127.93;47.20;;;;;;;4.62;100.00;101864.25;5053490;28;20041;-80
2021/11/12 07:58:21;;;;;;;112.78;46.50;;;;;;;4.66;100.00;101869.28;5036389;28;20406;-82
2021/11/12 08:00:47;;;;;;;119.35;47.00;;;;;;;4.73;100.00;101867.19;5053445;28;20025;-82
2021/11/12 08:03:14;;;;;;;107.85;43.55;;;;;;;4.77;100.00;101866.94;5053880;28;20100;-86
2021/11/12 08:05:43;;;;;;;99.45;43.45;;;;;;;4.85;100.00;101856.06;5052840;28;20036;-88
2021/11/12 08:08:12;;;;;;;106.85;45.25;;;;;;;4.92;99.69;101846.03;5054120;28;20067;-82
2021/11/12 08:13:25;;;;;;;91.95;44.00;;;;;;;5.06;98.92;101854.09;5053917;28;20047;-79
2021/11/12 08:16:11;;;;;;;96.75;43.28;;;;;;;5.15;98.75;101849.28;5053237;28;20044;-77
2021/11/12 08:18:47;;;;;;;97.78;44.47;;;;;;;5.20;98.22;101839.34;5038691;28;20535;-77
2021/11/12 08:21:17;;;;;;;95.07;44.25;;;;;;;5.24;98.15;101830.31;5053627;28;20037;-82
2021/11/12 08:23:57;;;;;;;98.07;43.88;;;;;;;5.32;98.02;101843.13;5053232;28;20033;-80
2021/11/12 08:26:32;;;;;;;92.53;44.17;;;;;;;5.37;97.46;101841.94;5053272;28;20047;-81
2021/11/12 08:37:11;;;;;;;76.97;41.15;;;;;;;5.57;95.70;101818.91;5052646;28;20041;-78
2021/11/12 08:42:29;;;;;;;76.68;38.45;;;;;;;5.57;93.95;101810.97;5053277;28;20079;-78
2021/11/12 08:47:57;;;;;;;81.28;39.47;;;;;;;5.78;94.01;101798.44;5030856;28;20397;-80
2021/11/12 08:50:23;;;;;;;74.55;38.55;;;;;;;5.86;93.24;101796.19;5052905;28;20033;-81
2021/11/12 08:52:52;;;;;;;78.18;37.00;;;;;;;5.98;93.47;101805.25;5052490;28;20029;-83
2021/11/12 08:55:29;;;;;;;73.18;38.83;;;;;;;6.10;92.97;101811.66;5052491;28;20431;-83
2021/11/12 08:57:56;;;;;;;80.28;40.65;;;;;;;6.22;92.64;101810.09;5053411;28;20032;-84
2021/11/12 09:00:22;;;;;;;71.55;37.88;;;;;;;6.22;90.85;101812.75;5034604;28;20075;-77
2021/11/12 09:02:50;;;;;;;74.60;39.72;;;;;;;6.27;91.03;101803.63;5052107;28;20119;-78
2021/11/12 09:05:17;;;;;;;79.72;38.65;;;;;;;6.31;90.36;101791.91;5052676;28;20032;-78
2021/11/12 09:07:45;;;;;;;70.90;40.10;;;;;;;6.45;90.82;101784.97;5052759;28;20040;-79
2021/11/12 09:10:11;;;;;;;76.53;39.30;;;;;;;6.52;89.58;101787.22;5052166;28;20029;-78
2021/11/12 09:12:36;;;;;;;73.20;38.72;;;;;;;6.59;89.04;101792.97;5052666;28;20389;-78
2021/11/12 09:15:11;;;;;;;78.90;38.90;;;;;;;6.67;89.49;101792.53;5051901;28;20041;-75
2021/11/12 09:17:38;;;;;;;74.95;37.95;;;;;;;6.78;88.24;101786.63;5052902;28;20029;-83
2021/11/12 09:20:04;;;;;;;72.55;38.15;;;;;;;6.84;87.32;101784.44;5052095;28;20036;-83
2021/11/12 09:22:34;;;;;;;71.30;37.03;;;;;;;6.88;87.23;101769.22;5052429;28;20037;-76
2021/11/12 09:25:00;;;;;;;72.20;37.58;;;;;;;7.03;86.95;101778.03;5051845;28;20072;-79
2021/11/12 09:27:25;;;;;;;73.70;36.10;;;;;;;7.19;86.07;101768.22;5052444;28;20032;-81
2021/11/12 09:29:51;;;;;;;72.65;35.83;;;;;;;7.35;84.89;101769.94;5051790;28;20482;-75
2021/11/12 09:32:18;;;;;;;69.72;36.65;;;;;;;7.47;84.37;101773.63;5052280;28;20035;-72
2021/11/12 09:34:44;;;;;;;72.65;36.70;;;;;;;7.62;83.24;101763.84;5052509;28;20036;-82
2021/11/12 09:37:11;;;;;;;70.03;34.95;;;;;;;7.73;82.44;101769.28;5051779;28;20443;-79
2021/11/12 09:39:41;;;;;;;70.00;35.28;;;;;;;7.66;82.83;101757.38;5052159;28;20083;-75
2021/11/12 09:42:08;;;;;;;68.38;34.47;;;;;;;7.76;82.36;101763.81;5051687;28;20179;-78
2021/11/12 09:44:35;;;;;;;70.70;35.25;;;;;;;7.87;82.72;101763.13;5052467;28;20029;-81
2021/11/12 09:47:01;;;;;;;72.40;35.03;;;;;;;7.77;81.83;101745.16;5051485;28;20083;-76
2021/11/12 09:49:27;;;;;;;70.45;33.47;;;;;;;7.71;81.93;101750.84;5052242;28;20041;-78
2021/11/12 09:51:53;;;;;;;72.80;35.28;;;;;;;7.49;81.97;101748.72;5034068;28;20487;-84
2021/11/12 09:54:19;;;;;;;73.50;35.17;;;;;;;7.40;83.37;101749.28;5052661;28;20047;-86
2021/11/12 09:56:44;;;;;;;69.22;33.00;;;;;;;7.37;83.72;101746.84;5051986;28;20472;-82
2021/11/12 09:59:11;;;;;;;72.88;36.22;;;;;;;7.35;84.76;101746.09;5034256;28;20079;-80
2021/11/12 10:01:40;;;;;;;73.05;34.50;;;;;;;7.44;84.29;101744.69;5052100;28;20401;-80
2021/11/12 10:04:09;;;;;;;67.18;33.58;;;;;;;7.65;82.84;101748.59;5051715;28;20083;-77
2021/11/12 10:06:43;;;;;;;64.03;33.50;;;;;;;7.71;82.62;101740.25;5052052;28;20040;-77
2021/11/12 10:09:17;;;;;;;68.50;32.92;;;;;;;7.65;81.97;101727.41;5051613;28;20120;-77
2021/11/12 10:11:55;;;;;;;59.05;31.58;;;;;;;7.57;81.82;101722.59;5052243;28;20030;-76
2021/11/12 10:15:03;;;;;;;57.20;30.70;;;;;;;7.48;82.12;101717.03;5052629;28;20029;-84
2021/11/12 10:17:30;;;;;;;65.32;30.92;;;;;;;7.56;83.36;101723.53;5052005;28;20033;-79
2021/11/12 10:19:57;;;;;;;59.38;30.15;;;;;;;7.58;82.43;101718.16;5051263;28;20362;-78
2021/11/12 10:22:29;;;;;;;52.60;29.73;;;;;;;7.72;81.88;101714.63;5052282;28;20043;-83
2021/11/12 10:24:55;;;;;;;62.38;28.95;;;;;;;7.84;82.37;101707.69;5051666;28;20398;-81
2021/11/12 10:27:25;;;;;;;52.80;28.75;;;;;;;7.82;81.02;101712.22;5051758;28;20025;-77
2021/11/12 10:29:57;;;;;;;51.03;29.42;;;;;;;7.77;82.01;101707.22;5054399;28;20116;-86
2021/11/12 10:32:24;;;;;;;54.75;28.05;;;;;;;7.89;81.47;101706.41;5055366;28;20021;-82
2021/11/12 10:34:53;;;;;;;50.50;27.65;;;;;;;8.02;80.02;101703.81;5056424;28;20029;-86
2021/11/12 10:37:25;;;;;;;52.42;28.05;;;;;;;8.22;78.24;101696.34;5055152;28;20036;-83
2021/11/12 10:39:57;;;;;;;42.67;25.95;;;;;;;8.26;77.39;101685.44;5055383;28;20033;-84
2021/11/12 10:42:28;;;;;;;;;;;;;;;8.45;77.27;101693.03;5056298;28;20082;-87
2021/11/12 10:45:07;;;;;;;46.72;27.02;;;;;;;8.54;77.33;101682.72;5055576;28;19954;-83
2021/11/12 10:47:35;;;;;;;46.90;27.42;;;;;;;8.45;77.03;101678.94;5037751;28;20049;-84
2021/11/12 10:50:05;;;;;;;46.00;26.17;;;;;;;8.46;76.94;101673.53;5036987;28;20111;-82
2021/11/12 10:52:31;;;;;;;47.47;28.08;;;;;;;8.32;77.63;101667.41;5037861;28;20492;-85
2021/11/12 10:55:17;;;;;;;49.40;28.48;;;;;;;8.30;78.42;101656.91;5038388;28;20112;-86
2021/11/12 10:57:57;;;;;;;49.13;27.50;;;;;;;8.28;78.83;101653.50;5057080;28;20029;-91
2021/11/12 11:00:23;;;;;;;50.22;26.88;;;;;;;8.23;78.11;101647.69;5056160;28;20108;-89
2021/11/12 11:03:01;;;;;;;49.20;27.90;;;;;;;8.32;78.89;101644.41;5039022;28;20115;-84
2021/11/12 11:05:26;;;;;;;46.00;27.17;;;;;;;8.44;77.73;101640.94;5059450;28;20036;-86
2021/11/12 11:08:06;;;;;;;50.85;28.05;;;;;;;8.53;77.39;101634.16;5067099;28;20033;-86
2021/11/12 11:10:38;;;;;;;44.65;26.38;;;;;;;8.55;77.33;101626.06;5063930;28;20431;-82
2021/11/12 11:13:12;;;;;;;48.88;27.42;;;;;;;8.44;78.38;101627.66;5055012;28;20033;-86
2021/11/12 11:15:45;;;;;;;51.58;27.75;;;;;;;8.42;77.93;101624.25;5055624;28;20098;-81
2021/11/12 11:18:40;;;;;;;47.83;26.60;;;;;;;8.30;78.33;101612.69;5054280;28;20037;-85
2021/11/12 11:24:03;;;;;;;46.30;25.80;;;;;;;8.30;79.06;101601.25;5054859;28;20095;-83
2021/11/12 11:26:44;;;;;;;48.42;26.95;;;;;;;8.20;79.08;101602.81;5055042;28;20032;-85
2021/11/12 11:29:13;;;;;;;48.15;26.65;;;;;;;8.15;79.53;101589.88;5058008;28;20021;-86
2021/11/12 11:31:39;;;;;;;45.80;27.20;;;;;;;8.21;79.48;101580.63;5055212;28;20102;-91
2021/11/12 11:34:05;;;;;;;48.00;26.45;;;;;;;8.20;79.91;101581.63;5054508;28;20040;-81
2021/11/12 11:36:35;;;;;;;49.58;26.38;;;;;;;8.28;80.51;101577.47;5054415;28;20219;-85
2021/11/12 11:39:05;;;;;;;46.00;26.38;;;;;;;8.35;80.26;101564.63;5054332;28;20032;-81
2021/11/12 11:41:31;;;;;;;45.28;25.00;;;;;;;8.39;79.63;101565.25;5053522;28;20483;-82
2021/11/12 11:43:57;;;;;;;42.22;24.27;;;;;;;8.20;78.88;101557.75;5054455;28;20033;-82
2021/11/12 11:46:25;;;;;;;42.53;23.90;;;;;;;8.27;79.14;101551.03;5054073;28;20032;-82
2021/11/12 11:48:52;;;;;;;39.53;23.33;;;;;;;8.25;79.15;101552.97;5054043;28;20033;-84
2021/11/12 11:51:30;;;;;;;44.63;24.15;;;;;;;8.33;79.51;101540.03;5035785;28;20037;-83
2021/11/12 11:54:03;;;;;;;39.63;23.73;;;;;;;8.30;79.74;101548.22;5054086;28;20032;-81
2021/11/12 11:56:31;;;;;;;38.92;22.70;;;;;;;8.30;79.48;101550.88;5053438;28;20041;-82
2021/11/12 11:58:59;;;;;;;39.33;22.73;;;;;;;8.14;78.87;101545.75;5053840;28;20487;-84
2021/11/12 12:01:37;;;;;;;40.30;22.67;;;;;;;8.10;79.41;101542.47;5025842;28;20034;-79
2021/11/12 12:04:05;;;;;;;40.15;22.33;;;;;;;8.14;80.52;101535.16;5011036;28;20034;-82
2021/11/12 12:06:30;;;;;;;39.85;23.42;;;;;;;8.06;79.40;101533.03;5011026;28;20029;-82
2021/11/12 12:09:16;;;;;;;38.90;23.08;;;;;;;8.07;80.66;101517.97;5011448;28;20042;-84
2021/11/12 12:11:53;;;;;;;35.83;20.92;;;;;;;8.08;80.77;101522.34;5011409;28;20068;-84
2021/11/12 12:14:27;;;;;;;38.53;22.48;;;;;;;8.09;80.13;101516.06;5010642;28;20026;-82
2021/11/12 12:16:59;;;;;;;39.25;22.30;;;;;;;8.10;79.63;101520.41;5011835;28;20116;-84
2021/11/12 12:31:10;;;;;;;35.08;20.35;;;;;;;8.08;80.13;101496.66;5011051;28;20057;-76
2021/11/12 13:25:28;;;;;;;29.17;18.70;;;;;;;9.26;77.99;101393.53;5009056;28;20034;-78
2021/11/12 13:28:40;;;;;;;33.58;19.70;;;;;;;9.23;77.56;101388.47;5009994;28;20391;-81
2021/11/12 13:31:10;;;;;;;34.25;18.88;;;;;;;9.24;76.98;101392.84;5007798;28;20438;-83
2021/11/12 13:33:45;;;;;;;31.63;18.98;;;;;;;9.24;78.32;101389.31;5010004;28;20038;-81
2021/11/12 13:36:21;;;;;;;34.72;18.63;;;;;;;9.23;77.95;101385.81;5008618;28;20034;-77
2021/11/12 13:38:49;;;;;;;29.25;17.20;;;;;;;9.21;77.29;101373.63;5009849;28;20124;-78
2021/11/12 13:41:17;;;;;;;28.00;16.77;;;;;;;9.16;77.10;101358.88;4991904;28;20363;-77
2021/11/12 13:43:46;;;;;;;32.60;15.77;;;;;;;9.20;75.98;101358.66;5010118;28;20033;-78
2021/11/12 13:46:13;;;;;;;23.60;13.35;;;;;;;9.24;74.22;101360.97;5009710;28;20077;-79
2021/11/12 13:48:50;;;;;;;27.02;14.85;;;;;;;9.26;75.81;101355.53;5009360;28;20077;-76
2021/11/12 13:51:22;;;;;;;25.15;14.65;;;;;;;9.27;74.34;101354.56;5009883;28;20030;-77
2021/11/12 13:53:49;;;;;;;24.92;14.30;;;;;;;9.25;73.98;101349.34;5010009;28;20066;-76
2021/11/12 13:56:14;;;;;;;28.38;15.02;;;;;;;9.36;74.16;101356.53;5009634;28;20496;-79
2021/11/12 13:58:41;;;;;;;28.60;15.07;;;;;;;9.38;75.11;101356.41;5008935;28;20045;-78
2021/11/12 14:01:22;;;;;;;28.25;15.38;;;;;;;9.32;74.05;101366.53;5009507;28;20037;-78
2021/11/12 14:03:49;;;;;;;27.63;15.85;;;;;;;9.37;74.83;101354.69;5010582;28;20096;-77
2021/11/12 14:06:15;;;;;;;22.20;14.57;;;;;;;9.30;74.63;101359.63;5013151;28;20060;-78
2021/11/12 14:08:49;;;;;;;37.92;14.93;;;;;;;9.32;75.07;101360.38;5012967;28;20466;-77
2021/11/12 14:11:26;;;;;;;25.23;14.75;;;;;;;9.28;75.18;101358.91;5013268;28;20029;-78
2021/11/12 14:13:54;;;;;;;22.42;14.20;;;;;;;9.30;75.07;101349.00;5013184;28;20030;-76
2021/11/12 14:16:32;;;;;;;30.05;14.30;;;;;;;9.26;73.61;101344.91;5013244;28;20092;-79
2021/11/12 14:40:12;;;;;;;26.27;12.60;;;;;;;9.07;75.35;101314.44;5013123;28;20061;-75
2021/11/12 14:48:03;;;;;;;21.08;11.10;;;;;;;8.96;73.88;101323.25;5012045;28;20149;-76
2021/11/12 14:53:27;;;;;;;20.23;10.52;;;;;;;8.90;74.90;101313.09;5012974;28;20567;-76
2021/11/12 14:56:04;;;;;;;19.65;10.25;;;;;;;8.89;75.25;101299.94;5012819;28;20096;-75
2021/11/12 14:58:30;;;;;;;14.18;9.57;;;;;;;8.86;74.42;101308.16;5012224;28;20022;-74
2021/11/12 15:01:24;;;;;;;18.05;10.38;;;;;;;8.85;75.74;101306.44;5012178;28;20050;-76
2021/11/12 15:03:51;;;;;;;18.17;10.50;;;;;;;8.83;75.57;101304.75;5009497;28;20572;-75
2021/11/12 15:06:19;;;;;;;16.08;9.15;;;;;;;8.85;74.26;101301.13;5012043;28;20042;-83
2021/11/12 15:11:16;;;;;;;14.60;9.00;;;;;;;8.86;73.48;101292.22;5012619;28;20065;-85
2021/11/12 15:13:43;;;;;;;14.90;8.95;;;;;;;8.92;72.42;101283.78;5011574;28;20026;-82
2021/11/12 15:16:14;;;;;;;14.63;8.18;;;;;;;8.96;72.05;101277.28;5012043;28;20037;-80
2021/11/12 15:18:40;;;;;;;15.77;8.77;;;;;;;8.99;72.63;101283.19;5010925;28;20451;-83
2021/11/12 15:21:12;;;;;;;16.52;8.32;;;;;;;9.01;72.47;101296.34;5012137;28;20038;-83
2021/11/12 15:23:55;;;;;;;16.25;8.88;;;;;;;9.03;73.00;101297.06;5011772;28;20045;-80
2021/11/12 15:27:07;;;;;;;17.35;8.05;;;;;;;9.08;71.32;101292.25;5011699;28;20381;-84
2021/11/12 15:29:20;;;;;;;13.05;8.25;;;;;;;9.08;72.75;101284.28;5006552;28;20128;-82
2021/11/12 15:34:28;;;;;;;13.53;8.57;;;;;;;9.11;71.20;101275.25;5012271;28;20431;-82
2021/11/12 15:39:32;;;;;;;16.52;8.70;;;;;;;9.11;72.13;101275.25;5012047;28;20042;-87
2021/11/12 15:44:42;;;;;;;14.82;8.52;;;;;;;9.06;72.48;101264.13;5011565;28;20052;-82
2021/11/12 15:47:19;;;;;;;13.38;8.15;;;;;;;9.04;72.11;101260.78;4993572;28;20403;-84
2021/11/12 15:49:45;;;;;;;13.32;8.00;;;;;;;9.02;71.58;101258.22;5010911;28;20037;-80
2021/11/12 16:03:23;;;;;;;12.55;7.97;;;;;;;8.93;72.28;101243.84;5011470;28;20041;-83
2021/11/12 16:13:48;;;;;;;17.83;8.60;;;;;;;8.89;72.85;101249.53;5011480;28;20136;-82
2021/11/12 16:16:45;;;;;;;15.88;8.13;;;;;;;8.90;72.11;101241.44;5012092;28;20057;-82
2021/11/12 16:19:15;;;;;;;18.52;8.80;;;;;;;8.88;73.72;101246.00;5010388;28;20046;-82
2021/11/12 16:26:58;;;;;;;14.15;8.63;;;;;;;8.87;72.52;101235.50;5010363;28;20478;-83
2021/11/12 16:29:33;;;;;;;13.10;8.50;;;;;;;8.86;73.47;101234.69;5011924;28;20394;-80
2021/11/12 16:32:00;;;;;;;15.52;8.75;;;;;;;8.85;73.71;101229.50;5010261;28;20040;-78
2021/11/12 16:34:26;;;;;;;18.33;8.73;;;;;;;8.84;73.67;101228.66;5010659;28;20095;-79
2021/11/12 16:36:57;;;;;;;15.95;8.98;;;;;;;8.86;74.49;101232.03;5009818;28;20033;-79
2021/11/12 16:39:30;;;;;;;16.52;9.07;;;;;;;8.86;74.36;101239.16;5010381;28;20058;-77
2021/11/12 16:42:18;;;;;;;19.35;9.57;;;;;;;8.85;74.57;101230.31;5010406;28;20783;-78
2021/11/12 16:49:47;;;;;;;15.05;9.30;;;;;;;8.85;76.70;101226.84;5010237;28;20649;-78
2021/11/12 16:54:54;;;;;;;14.82;9.52;;;;;;;8.85;75.00;101209.09;5010079;28;20045;-79
2021/11/12 17:10:16;;;;;;;17.45;9.70;;;;;;;8.64;76.56;101190.38;5009870;28;20049;-83
2021/11/12 17:16:17;;;;;;;15.38;9.68;;;;;;;8.51;78.60;101189.63;4968570;28;20050;-82
2021/11/12 17:46:16;;;;;;;20.77;10.60;;;;;;;8.45;78.51;101196.25;5013950;28;20069;-81
2021/11/12 17:48:58;;;;;;;17.08;10.07;;;;;;;8.38;78.61;101195.84;5013703;28;20108;-82